Time;durP1;ratioP1;P1;durP2;ratioP2;P2;SDS_P1;SDS_P2;PMS_P1;PMS_P2;Temp;Humidity;BMP_temperature;BMP_pressure;BME280_temperature;BME280_humidity;BME280_pressure;Samples;Min_cycle;Max_cycle;Signal;HPM_P1;HPM_P2
2021/03/17 00:00:42;;;;;;;16.32;10.08;;;;;;;9.05;48.92;99454.97;1776090;80;20207;-78
2021/03/17 00:03:30;;;;;;;19.02;10.45;;;;;;;9.03;48.96;99454.29;1774809;80;21197;-81
2021/03/17 00:06:16;;;;;;;17.87;11.33;;;;;;;8.99;49.08;99454.30;1725982;82;21185;-78
2021/03/17 00:09:02;;;;;;;16.32;10.75;;;;;;;8.98;49.10;99453.98;1765579;80;21090;-81
2021/03/17 00:11:48;;;;;;;20.77;11.18;;;;;;;8.98;49.17;99456.65;1772588;80;21588;-82
2021/03/17 00:14:33;;;;;;;18.37;10.72;;;;;;;9.00;49.11;99450.66;1776482;80;21082;-80
2021/03/17 00:17:19;;;;;;;17.57;10.55;;;;;;;8.99;49.11;99441.45;1776196;80;21169;-79
2021/03/17 00:20:09;;;;;;;20.27;9.68;;;;;;;8.97;49.12;99448.31;1776409;80;21481;-80
2021/03/17 00:22:55;;;;;;;22.22;10.35;;;;;;;8.94;49.15;99445.98;1776907;80;21072;-81
2021/03/17 00:25:41;;;;;;;15.83;10.50;;;;;;;8.93;49.18;99440.82;1776256;80;21086;-79
2021/03/17 00:28:26;;;;;;;21.20;12.15;;;;;;;8.95;49.23;99440.13;1776285;80;21162;-80
2021/03/17 00:31:12;;;;;;;18.07;11.15;;;;;;;8.95;49.23;99444.14;1776484;80;21102;-80
2021/03/17 00:33:58;;;;;;;18.73;11.00;;;;;;;8.95;49.23;99437.46;1777726;80;21591;-80
2021/03/17 00:36:44;;;;;;;23.40;11.93;;;;;;;8.96;49.17;99438.64;1777404;80;21090;-81
2021/03/17 00:39:30;;;;;;;20.57;11.22;;;;;;;8.96;49.20;99434.64;1776238;80;21167;-82
2021/03/17 00:42:15;;;;;;;18.02;10.08;;;;;;;8.96;49.22;99435.97;1776380;80;21066;-79
2021/03/17 00:45:01;;;;;;;19.90;11.30;;;;;;;8.95;49.16;99422.77;1776229;80;21069;-77
2021/03/17 00:47:47;;;;;;;23.22;10.68;;;;;;;8.94;49.20;99424.61;1776969;80;21126;-79
2021/03/17 00:50:17;;;;;;;18.65;10.40;;;;;;;8.94;49.22;99417.94;1777285;80;21188;-80
2021/03/17 00:52:44;;;;;;;18.32;10.13;;;;;;;8.96;49.21;99415.11;1777912;80;21110;-78
2021/03/17 00:55:12;;;;;;;22.65;10.68;;;;;;;8.96;49.21;99414.61;1778535;80;21042;-80
2021/03/17 00:57:41;;;;;;;18.45;10.80;;;;;;;8.98;49.17;99405.91;1772652;80;21042;-82
2021/03/17 01:00:11;;;;;;;25.92;10.68;;;;;;;8.97;49.12;99404.25;1776447;80;21141;-76
2021/03/17 01:02:39;;;;;;;15.65;8.83;;;;;;;8.96;49.11;99410.60;1776209;80;21142;-79
2021/03/17 01:05:08;;;;;;;17.60;10.15;;;;;;;8.94;49.16;99409.92;1776796;80;21127;-77
2021/03/17 01:07:35;;;;;;;17.73;10.03;;;;;;;8.90;49.25;99408.60;1776379;80;21074;-82
2021/03/17 01:10:12;;;;;;;17.42;10.30;;;;;;;8.92;49.23;99406.61;1776675;80;21126;-78
2021/03/17 01:12:41;;;;;;;18.45;10.03;;;;;;;8.91;49.26;99408.95;1743158;82;21787;-77
2021/03/17 01:15:13;;;;;;;23.50;10.58;;;;;;;8.91;49.33;99404.95;1775739;80;21150;-80
2021/03/17 01:17:40;;;;;;;16.40;9.93;;;;;;;8.91;49.31;99403.61;1781051;80;21164;-79
2021/03/17 01:20:10;;;;;;;19.02;10.23;;;;;;;8.93;49.31;99409.60;1774911;80;21175;-83
2021/03/17 01:22:37;;;;;;;21.25;10.82;;;;;;;8.94;49.28;99410.43;1788098;80;21188;-80
2021/03/17 01:25:09;;;;;;;;;;;;;;;8.92;49.34;99401.27;1777846;80;21646;-78
2021/03/17 01:27:37;;;;;;;19.20;8.85;;;;;;;8.94;49.32;99404.58;1769996;81;20273;-80
2021/03/17 01:30:05;;;;;;;;;;;;;;;8.88;49.39;99403.45;1790820;80;21180;-78
2021/03/17 01:32:34;;;;;;;20.00;9.58;;;;;;;8.88;49.46;99399.95;1770700;80;20275;-83
2021/03/17 01:35:05;;;;;;;16.48;9.05;;;;;;;8.89;49.53;99401.60;1743392;81;21105;-79
2021/03/17 01:37:33;;;;;;;17.70;10.05;;;;;;;8.91;49.56;99402.28;1772807;80;21607;-80
2021/03/17 01:40:02;;;;;;;19.52;9.88;;;;;;;8.93;49.55;99405.59;1774785;80;21113;-82
2021/03/17 01:42:29;;;;;;;18.27;10.05;;;;;;;8.96;49.56;99407.10;1751646;80;21229;-77
2021/03/17 01:44:58;;;;;;;20.55;10.00;;;;;;;8.97;49.52;99399.41;1774499;80;21165;-81
2021/03/17 01:47:25;;;;;;;19.62;10.53;;;;;;;9.00;49.47;99399.91;1771719;80;21148;-80
2021/03/17 01:49:53;;;;;;;17.00;10.95;;;;;;;8.99;49.47;99398.72;1775349;80;21145;-78
2021/03/17 01:52:19;;;;;;;;;;;;;;;8.96;49.51;99397.25;1764450;80;21225;-82
2021/03/17 01:54:47;;;;;;;19.55;9.53;;;;;;;8.95;49.54;99392.92;1756133;80;20493;-81
2021/03/17 01:57:14;;;;;;;15.58;8.85;;;;;;;8.95;49.59;99393.39;1776390;80;21074;-82
2021/03/17 01:59:42;;;;;;;17.65;9.48;;;;;;;8.98;49.59;99389.05;1770471;80;21179;-79
2021/03/17 02:02:09;;;;;;;;;;;;;;;9.00;49.58;99387.88;1770011;80;21207;-82
2021/03/17 02:04:36;;;;;;;16.05;10.25;;;;;;;9.02;49.60;99387.20;1774571;80;20290;-77
2021/03/17 02:07:03;;;;;;;;;;;;;;;9.02;49.60;99384.52;1767669;80;21132;-82
2021/03/17 02:09:30;;;;;;;18.82;10.58;;;;;;;8.99;49.62;99379.52;1779031;80;20539;-79
2021/03/17 02:12:24;;;;;;;21.68;9.55;;;;;;;8.98;49.68;99381.04;1754018;80;21172;-76
2021/03/17 02:15:12;;;;;;;19.65;9.45;;;;;;;8.97;49.68;99371.38;1726147;81;21241;-79
2021/03/17 02:17:39;;;;;;;15.72;9.40;;;;;;;8.94;49.73;99373.05;1770506;80;21576;-78
2021/03/17 02:20:18;;;;;;;20.77;10.48;;;;;;;8.96;49.77;99365.20;1734761;80;21539;-78
2021/03/17 02:23:00;;;;;;;17.92;7.97;;;;;;;8.93;49.79;99368.20;1766043;80;21181;-78
2021/03/17 02:25:43;;;;;;;18.05;9.05;;;;;;;8.89;49.87;99369.56;1746567;81;39452;-79
2021/03/17 02:28:58;;;;;;;18.07;10.03;;;;;;;8.87;49.97;99367.58;1768537;79;21709;-82
2021/03/17 02:31:50;;;;;;;16.70;8.98;;;;;;;8.86;50.05;99367.26;1723900;83;21229;-80
2021/03/17 02:34:23;;;;;;;23.07;9.40;;;;;;;8.87;50.09;99371.58;1723774;83;21234;-83
2021/03/17 02:36:59;;;;;;;17.75;8.28;;;;;;;8.86;50.13;99367.26;1752040;80;21467;-83
2021/03/17 02:39:32;;;;;;;20.80;10.35;;;;;;;8.86;50.15;99366.75;1770037;80;21432;-76
2021/03/17 02:42:15;;;;;;;15.48;8.38;;;;;;;8.87;50.14;99369.74;1768850;80;21218;-80
2021/03/17 02:44:46;;;;;;;16.85;8.90;;;;;;;8.89;50.13;99370.89;1738789;81;21150;-82
2021/03/17 02:47:13;;;;;;;17.98;9.53;;;;;;;8.86;50.19;99363.25;1763485;81;21500;-77
2021/03/17 02:49:41;;;;;;;17.65;9.13;;;;;;;8.88;50.22;99371.40;1763373;81;21094;-79
2021/03/17 02:52:10;;;;;;;19.45;9.50;;;;;;;8.89;50.26;99369.56;1764226;80;21156;-79
2021/03/17 02:54:37;;;;;;;17.75;9.48;;;;;;;8.89;50.23;99362.88;1774510;80;21139;-84
2021/03/17 02:57:16;;;;;;;18.42;9.78;;;;;;;8.92;50.26;99369.22;1768176;80;21227;-78
2021/03/17 02:59:45;;;;;;;21.60;9.50;;;;;;;8.95;50.19;99374.22;1768509;80;21105;-82
2021/03/17 03:02:12;;;;;;;18.32;10.28;;;;;;;8.94;50.18;99378.38;1772673;80;21179;-81
2021/03/17 03:04:41;;;;;;;16.60;8.90;;;;;;;8.93;50.19;99377.55;1769038;80;21167;-78
2021/03/17 03:07:10;;;;;;;15.58;9.05;;;;;;;8.92;50.24;99374.56;1770149;80;21141;-82
2021/03/17 03:09:37;;;;;;;17.98;9.13;;;;;;;8.90;50.31;99371.22;1774329;80;21156;-78
2021/03/17 03:12:05;;;;;;;;;;;;;;;8.92;50.34;99371.89;1719554;80;21097;-81
2021/03/17 03:14:33;;;;;;;20.10;10.25;;;;;;;8.92;50.32;99367.05;1750825;80;20498;-82
2021/03/17 03:17:01;;;;;;;;;;;;;;;8.89;50.39;99366.89;1751643;80;21113;-84
2021/03/17 03:19:37;;;;;;;19.32;9.80;;;;;;;8.87;50.40;99358.23;1764867;80;20485;-77
2021/03/17 03:22:05;;;;;;;20.82;9.68;;;;;;;8.85;50.47;99358.89;1775393;80;21091;-76
2021/03/17 03:24:33;;;;;;;23.22;10.53;;;;;;;8.83;50.54;99362.25;1775533;80;21101;-76
2021/03/17 03:27:00;;;;;;;20.70;9.73;;;;;;;8.81;50.56;99366.92;1750624;80;21144;-78
2021/03/17 03:29:27;;;;;;;;;;;;;;;8.80;50.59;99362.59;1778930;79;21161;-79
2021/03/17 03:31:54;;;;;;;19.00;8.43;;;;;;;8.81;50.64;99355.77;1776917;80;20219;-82
2021/03/17 03:34:21;;;;;;;15.13;9.33;;;;;;;8.83;50.63;99362.25;1775911;80;21212;-78
2021/03/17 03:36:49;;;;;;;20.02;10.23;;;;;;;8.85;50.63;99350.88;1775019;80;21200;-76
2021/03/17 03:39:16;;;;;;;23.22;10.78;;;;;;;8.85;50.62;99352.22;1748830;80;21164;-78
2021/03/17 03:41:44;;;;;;;23.25;10.55;;;;;;;8.86;50.62;99349.91;1776338;80;21065;-82
2021/03/17 03:44:11;;;;;;;22.32;10.50;;;;;;;8.87;50.64;99343.55;1776722;80;21065;-79
2021/03/17 03:46:38;;;;;;;21.05;9.73;;;;;;;8.88;50.62;99349.20;1763871;80;21123;-78
2021/03/17 03:49:06;;;;;;;18.50;8.45;;;;;;;8.88;50.60;99351.88;1773339;80;21060;-81
2021/03/17 03:51:34;;;;;;;21.45;9.20;;;;;;;8.87;50.60;99351.56;1744259;80;21096;-79
2021/03/17 03:54:43;;;;;;;18.85;9.45;;;;;;;8.86;50.68;99349.39;1775168;80;21169;-78
2021/03/17 03:57:31;;;;;;;26.97;10.13;;;;;;;8.88;50.68;99350.03;1769437;80;26726;-76
2021/03/17 04:00:07;;;;;;;21.62;10.48;;;;;;;8.86;50.71;99346.72;1773766;80;21201;-79
2021/03/17 04:02:46;;;;;;;26.77;11.28;;;;;;;8.91;50.65;99342.70;1770705;80;21154;-76
2021/03/17 04:05:21;;;;;;;27.02;10.58;;;;;;;8.88;50.65;99339.36;1772583;80;21137;-78
2021/03/17 04:07:51;;;;;;;19.75;9.85;;;;;;;8.87;50.72;99343.04;1774873;80;21117;-78
2021/03/17 04:10:18;;;;;;;19.77;9.83;;;;;;;8.87;50.73;99348.38;1775638;80;21223;-75
2021/03/17 04:12:45;;;;;;;27.22;10.48;;;;;;;8.86;50.74;99341.89;1721163;80;21197;-80
2021/03/17 04:15:15;;;;;;;20.77;9.53;;;;;;;8.88;50.79;99339.86;1776383;80;21149;-74
2021/03/17 04:17:57;;;;;;;21.23;10.45;;;;;;;8.88;50.76;99340.69;1774082;80;21066;-75
2021/03/17 04:20:31;;;;;;;25.10;10.88;;;;;;;8.87;50.83;99339.03;1766149;80;21059;-78
2021/03/17 04:22:58;;;;;;;22.77;10.43;;;;;;;8.87;50.84;99339.54;1774025;80;21103;-75
2021/03/17 04:25:25;;;;;;;23.20;10.30;;;;;;;8.89;50.84;99343.68;1736150;80;21553;-79
2021/03/17 04:27:52;;;;;;;;;;;;;;;8.91;50.83;99335.52;1723435;80;21578;-75
2021/03/17 04:30:21;;;;;;;21.73;10.23;;;;;;;8.86;50.93;99337.88;1741054;81;20537;-77
2021/03/17 04:32:48;;;;;;;21.42;10.30;;;;;;;8.79;51.09;99336.91;1769418;81;21206;-77
2021/03/17 04:35:17;;;;;;;25.17;10.90;;;;;;;8.83;51.12;99336.38;1769858;81;21658;-79
2021/03/17 04:37:46;;;;;;;23.65;10.82;;;;;;;8.79;51.27;99341.73;1764574;79;21080;-76
2021/03/17 04:40:15;;;;;;;19.70;11.83;;;;;;;8.84;51.27;99339.38;1769298;81;21116;-78
2021/03/17 04:42:43;;;;;;;23.25;11.12;;;;;;;8.82;51.35;99344.58;1769722;81;21209;-77
2021/03/17 04:45:12;;;;;;;22.55;10.38;;;;;;;8.84;51.35;99341.22;1769189;81;21681;-80
2021/03/17 04:47:42;;;;;;;22.17;10.48;;;;;;;8.83;51.41;99340.89;1769190;81;21171;-80
2021/03/17 04:50:12;;;;;;;19.67;9.63;;;;;;;8.83;51.42;99339.55;1774703;80;21167;-79
2021/03/17 04:52:39;;;;;;;24.00;9.93;;;;;;;8.88;51.37;99341.20;1774786;80;21199;-76
2021/03/17 04:55:09;;;;;;;22.95;10.18;;;;;;;8.82;51.45;99343.24;1774325;80;21668;-79
2021/03/17 04:57:38;;;;;;;24.87;11.38;;;;;;;8.80;51.57;99349.24;1772883;80;21667;-78
2021/03/17 05:00:12;;;;;;;32.20;12.25;;;;;;;8.77;51.64;99344.27;1753835;80;21667;-77
2021/03/17 05:02:40;;;;;;;29.30;11.25;;;;;;;8.73;51.72;99350.45;1773378;80;21436;-78
2021/03/17 05:05:09;;;;;;;18.65;10.00;;;;;;;8.73;51.79;99345.63;1772835;80;21136;-78
2021/03/17 05:07:39;;;;;;;21.45;9.85;;;;;;;8.77;51.73;99358.45;1763162;80;21108;-77
2021/03/17 05:10:11;;;;;;;18.30;9.08;;;;;;;8.77;51.76;99351.77;1747992;80;21079;-78
2021/03/17 05:12:38;;;;;;;24.15;10.60;;;;;;;8.80;51.75;99354.58;1772668;80;21238;-76
2021/03/17 05:15:07;;;;;;;25.95;11.75;;;;;;;8.81;51.76;99360.24;1774400;79;21954;-75
2021/03/17 05:17:37;;;;;;;26.90;11.30;;;;;;;8.78;51.78;99357.44;1771006;80;21210;-80
2021/03/17 05:20:10;;;;;;;20.23;9.80;;;;;;;8.77;51.84;99355.78;1771709;80;21193;-79
2021/03/17 05:22:38;;;;;;;21.48;9.45;;;;;;;8.77;51.88;99353.61;1775239;80;21208;-77
2021/03/17 05:25:07;;;;;;;23.02;11.53;;;;;;;8.76;51.94;99362.61;1793515;79;21141;-77
2021/03/17 05:27:36;;;;;;;26.27;10.88;;;;;;;8.77;51.96;99363.78;1752678;80;21650;-78
2021/03/17 05:30:08;;;;;;;28.57;11.38;;;;;;;8.79;52.04;99364.94;1775614;80;21201;-76
2021/03/17 05:32:36;;;;;;;25.60;11.43;;;;;;;8.80;52.09;99367.42;1769090;80;21181;-78
2021/03/17 05:35:06;;;;;;;23.73;11.63;;;;;;;8.81;52.10;99364.25;1770374;80;21192;-78
2021/03/17 05:37:34;;;;;;;22.42;10.25;;;;;;;8.82;52.16;99368.61;1773952;80;21185;-76
2021/03/17 05:40:04;;;;;;;22.22;10.90;;;;;;;8.83;52.22;99363.08;1765173;80;21694;-76
2021/03/17 05:42:31;;;;;;;23.75;11.68;;;;;;;8.83;52.27;99370.27;1772922;80;21693;-80
2021/03/17 05:44:59;;;;;;;20.60;10.53;;;;;;;8.83;52.42;99376.44;1773088;80;21193;-78
2021/03/17 05:47:26;;;;;;;24.43;12.07;;;;;;;8.85;52.57;99366.39;1772640;80;21487;-81
2021/03/17 05:49:54;;;;;;;26.62;11.97;;;;;;;8.87;52.62;99367.58;1773035;80;21197;-76
2021/03/17 05:52:22;;;;;;;27.48;11.83;;;;;;;8.91;52.71;99372.08;1773451;80;21684;-80
2021/03/17 05:54:49;;;;;;;;;;;;;;;8.94;52.71;99369.86;1746272;80;21198;-78
2021/03/17 05:57:16;;;;;;;24.20;9.93;;;;;;;8.93;52.79;99370.88;1774403;80;20536;-78
2021/03/17 05:59:45;;;;;;;23.22;10.23;;;;;;;8.92;52.88;99373.23;1777551;80;21185;-79
2021/03/17 06:02:12;;;;;;;24.77;11.10;;;;;;;8.91;53.00;99374.23;1771568;80;21698;-78
2021/03/17 06:04:40;;;;;;;21.27;11.33;;;;;;;8.91;53.07;99375.58;1722204;80;21140;-75
2021/03/17 06:07:12;;;;;;;26.95;11.43;;;;;;;8.92;53.07;99375.90;1778379;80;21480;-76
2021/03/17 06:09:40;;;;;;;25.45;12.68;;;;;;;8.94;53.09;99375.20;1757425;80;21214;-76
2021/03/17 06:12:08;;;;;;;20.65;10.65;;;;;;;8.89;53.12;99373.56;1759049;80;21214;-76
2021/03/17 06:14:36;;;;;;;27.60;10.78;;;;;;;8.84;53.22;99372.75;1767341;79;21157;-76
2021/03/17 06:17:10;;;;;;;21.48;10.75;;;;;;;8.83;53.31;99379.61;1745020;80;21141;-76
2021/03/17 06:19:38;;;;;;;22.90;10.70;;;;;;;8.82;53.31;99376.62;1770016;80;21416;-75
2021/03/17 06:22:07;;;;;;;31.35;13.38;;;;;;;8.80;53.36;99378.61;1735206;80;21135;-76
2021/03/17 06:24:36;;;;;;;26.97;12.23;;;;;;;8.82;53.37;99380.11;1749146;80;21660;-76
2021/03/17 06:27:04;;;;;;;30.40;10.45;;;;;;;8.79;53.41;99365.77;1771407;80;21803;-78
2021/03/17 06:29:33;;;;;;;27.73;10.30;;;;;;;8.77;53.44;99370.97;1762727;79;21160;-75
2021/03/17 06:32:00;;;;;;;25.30;10.28;;;;;;;8.79;53.47;99375.62;1741588;80;21137;-75
2021/03/17 06:34:28;;;;;;;26.82;10.13;;;;;;;8.80;53.40;99367.93;1770995;79;21136;-75
2021/03/17 06:36:57;;;;;;;19.40;10.63;;;;;;;8.79;53.38;99367.61;1746616;79;21115;-76
2021/03/17 06:39:28;;;;;;;22.40;11.48;;;;;;;8.78;53.41;99367.28;1741667;80;21131;-76
2021/03/17 06:41:55;;;;;;;21.17;9.75;;;;;;;8.78;53.39;99371.29;1736245;81;21144;-76
2021/03/17 06:44:28;;;;;;;;;;;;;;;8.78;53.34;99368.11;1767467;79;21156;-77
2021/03/17 06:47:21;;;;;;;20.52;9.15;;;;;;;8.75;53.42;99367.63;1763830;79;20258;-77
2021/03/17 06:50:04;;;;;;;27.98;11.95;;;;;;;8.77;53.38;99360.28;1769761;79;21137;-76
2021/03/17 06:52:37;;;;;;;22.10;11.08;;;;;;;8.79;53.22;99364.43;1769443;79;21111;-76
2021/03/17 06:55:12;;;;;;;28.67;11.33;;;;;;;8.79;53.32;99364.94;1766178;79;21137;-74
2021/03/17 06:57:47;;;;;;;25.55;11.08;;;;;;;8.80;53.26;99364.75;1763645;79;22155;-76
2021/03/17 07:00:33;;;;;;;27.27;10.68;;;;;;;8.83;53.19;99360.92;1738557;81;21136;-75
2021/03/17 07:03:21;;;;;;;17.48;9.43;;;;;;;8.82;53.18;99367.27;1771553;79;21114;-76
2021/03/17 07:05:53;;;;;;;25.85;11.60;;;;;;;8.87;53.12;99368.91;1765949;79;21100;-75
2021/03/17 07:08:39;;;;;;;21.68;11.57;;;;;;;8.96;53.08;99372.38;1864455;75;24160;-74
2021/03/17 07:11:07;;;;;;;;;;;;;;;8.93;52.92;99368.20;1809923;77;21754;-76
2021/03/17 07:13:36;;;;;;;20.77;9.38;;;;;;;8.92;52.88;99367.89;1839620;77;21225;-75
2021/03/17 07:16:06;;;;;;;18.87;10.18;;;;;;;8.91;52.85;99368.90;1800962;78;21530;-76
2021/03/17 07:18:35;;;;;;;21.48;10.25;;;;;;;8.94;52.76;99381.88;1798295;78;21157;-77
2021/03/17 07:21:05;;;;;;;17.42;7.87;;;;;;;8.93;52.72;99372.72;1745510;80;21742;-76
2021/03/17 07:23:43;;;;;;;21.02;9.43;;;;;;;8.93;52.77;99370.88;1773995;79;21098;-75
2021/03/17 07:26:22;;;;;;;22.82;9.58;;;;;;;8.93;52.69;99366.88;1775839;79;21173;-75
2021/03/17 07:29:02;;;;;;;27.37;10.03;;;;;;;8.93;52.68;99373.55;1775827;79;21132;-75
2021/03/17 07:31:35;;;;;;;22.07;10.40;;;;;;;8.92;52.69;99373.73;1773331;79;21545;-76
2021/03/17 07:34:17;;;;;;;20.75;11.00;;;;;;;8.90;52.61;99372.55;1774337;79;21109;-76
2021/03/17 07:36:58;;;;;;;28.40;10.10;;;;;;;8.88;52.59;99370.57;1774753;79;21106;-75
2021/03/17 07:39:32;;;;;;;18.57;8.98;;;;;;;8.84;52.72;99370.59;1774301;79;21124;-74
2021/03/17 07:42:01;;;;;;;18.62;8.48;;;;;;;8.84;52.73;99374.59;1774704;79;21133;-74
2021/03/17 07:44:31;;;;;;;24.43;10.20;;;;;;;8.84;52.79;99374.59;1775025;79;21224;-77
2021/03/17 07:47:01;;;;;;;24.10;12.63;;;;;;;8.84;52.71;99375.92;1775333;80;21181;-74
2021/03/17 07:49:31;;;;;;;23.47;12.63;;;;;;;8.84;52.71;99372.75;1769799;79;21188;-76
2021/03/17 07:52:00;;;;;;;23.65;10.32;;;;;;;8.85;52.68;99376.25;1771957;79;21185;-76
2021/03/17 07:54:37;;;;;;;16.73;9.00;;;;;;;8.83;52.67;99376.94;1741196;80;21164;-74
2021/03/17 07:57:06;;;;;;;23.65;8.90;;;;;;;8.80;52.63;99370.59;1771739;79;21141;-77
2021/03/17 07:59:34;;;;;;;20.15;8.98;;;;;;;8.81;52.73;99375.79;1742692;79;21133;-74
2021/03/17 08:02:02;;;;;;;20.52;9.85;;;;;;;8.84;52.81;99370.08;1698273;79;21689;-75
2021/03/17 08:04:49;;;;;;;17.27;9.27;;;;;;;8.88;52.76;99377.25;1738263;79;21164;-79
2021/03/17 08:07:16;;;;;;;;;;;;;;;8.92;52.73;99377.23;1771265;79;21153;-74
2021/03/17 08:09:47;;;;;;;18.82;8.98;;;;;;;8.93;52.76;99380.22;1769668;79;20710;-74
2021/03/17 08:12:17;;;;;;;25.23;8.68;;;;;;;8.92;52.68;99373.23;1768824;79;21092;-76
2021/03/17 08:14:46;;;;;;;16.45;7.03;;;;;;;8.91;52.63;99380.92;1737940;79;21125;-74
2021/03/17 08:17:32;;;;;;;14.68;7.25;;;;;;;8.90;52.50;99376.55;1772614;79;21174;-75
2021/03/17 08:20:27;;;;;;;16.23;8.05;;;;;;;8.94;52.42;99377.05;1746354;79;21149;-79
2021/03/17 08:22:56;;;;;;;16.25;8.25;;;;;;;8.93;52.44;99375.39;1775731;80;21120;-75
2021/03/17 08:25:46;;;;;;;14.38;8.10;;;;;;;8.93;52.46;99376.22;1769784;79;21560;-75
2021/03/17 08:28:23;;;;;;;18.42;8.33;;;;;;;8.87;52.50;99372.41;1770191;79;21101;-75
2021/03/17 08:30:53;;;;;;;20.05;7.30;;;;;;;8.85;52.57;99373.07;1743716;80;21196;-77
2021/03/17 08:33:36;;;;;;;15.88;8.30;;;;;;;8.84;52.59;99374.09;1774580;79;21632;-78
2021/03/17 08:36:14;;;;;;;24.27;8.58;;;;;;;8.84;52.62;99375.42;1770738;79;21099;-76
2021/03/17 08:38:53;;;;;;;16.37;9.25;;;;;;;8.85;52.67;99377.08;1770280;79;21108;-77
2021/03/17 08:41:46;;;;;;;17.17;8.90;;;;;;;8.87;52.71;99369.74;1772335;79;21117;-76
2021/03/17 08:44:17;;;;;;;23.02;9.28;;;;;;;8.90;52.58;99380.56;1770960;79;21136;-75
2021/03/17 08:46:46;;;;;;;25.15;14.73;;;;;;;8.90;52.54;99373.89;1777957;78;21663;-75
2021/03/17 08:49:19;;;;;;;23.83;14.45;;;;;;;8.86;52.54;99377.94;1795775;78;21122;-75
2021/03/17 08:51:53;;;;;;;20.97;10.40;;;;;;;8.84;52.56;99375.92;1768789;78;21109;-75
2021/03/17 08:54:41;;;;;;;14.83;7.70;;;;;;;8.81;52.62;99372.26;1764607;79;21116;-76
2021/03/17 08:57:10;;;;;;;19.15;8.80;;;;;;;8.81;52.68;99373.59;1759677;79;21716;-77
2021/03/17 09:00:00;;;;;;;15.30;7.80;;;;;;;8.79;52.79;99378.29;1796694;78;21151;-74
2021/03/17 09:02:31;;;;;;;14.45;7.45;;;;;;;8.78;52.79;99374.79;1765037;79;21113;-77
2021/03/17 09:05:04;;;;;;;14.70;6.62;;;;;;;8.80;52.97;99380.77;1796917;78;21121;-75
2021/03/17 09:07:34;;;;;;;15.00;6.75;;;;;;;8.79;52.94;99378.29;1795321;78;21160;-76
2021/03/17 09:10:11;;;;;;;10.82;6.25;;;;;;;8.80;52.99;99382.61;1795997;78;21188;-76
2021/03/17 09:12:45;;;;;;;14.75;6.80;;;;;;;8.83;53.07;99378.28;1795350;78;21141;-74
2021/03/17 09:15:16;;;;;;;9.45;6.17;;;;;;;8.85;53.04;99383.75;1772542;79;21145;-75
2021/03/17 09:17:57;;;;;;;12.70;7.37;;;;;;;8.86;52.86;99385.95;1791543;78;21158;-74
2021/03/17 09:20:45;;;;;;;11.50;6.60;;;;;;;8.87;52.93;99392.95;1775221;78;21592;-75
2021/03/17 09:23:21;;;;;;;11.75;6.92;;;;;;;8.87;52.82;99387.61;1761196;79;21142;-74
2021/03/17 09:26:00;;;;;;;11.50;6.80;;;;;;;8.86;52.90;99387.28;1791529;78;22446;-73
2021/03/17 09:28:31;;;;;;;8.45;6.03;;;;;;;8.87;53.02;99395.62;1745430;78;21132;-73
2021/03/17 09:31:07;;;;;;;9.70;6.62;;;;;;;8.91;53.04;99402.28;1760804;80;21125;-74
2021/03/17 09:33:40;;;;;;;12.45;6.90;;;;;;;8.95;53.03;99401.41;1775029;78;21101;-75
2021/03/17 09:36:13;;;;;;;9.80;6.83;;;;;;;8.99;52.98;99398.72;1771519;79;21162;-76
2021/03/17 09:38:47;;;;;;;15.10;8.38;;;;;;;9.02;52.88;99401.88;1780810;79;21181;-75
2021/03/17 09:41:27;;;;;;;11.85;7.37;;;;;;;9.03;52.86;99398.20;1776813;79;21142;-75
2021/03/17 09:44:06;;;;;;;10.95;6.50;;;;;;;9.04;52.85;99403.89;1745814;79;21137;-75
2021/03/17 09:46:40;;;;;;;10.38;5.95;;;;;;;9.03;52.75;99404.88;1775606;79;21137;-76
2021/03/17 09:49:16;;;;;;;13.03;8.00;;;;;;;9.02;52.80;99403.72;1773444;79;21751;-75
2021/03/17 09:51:56;;;;;;;11.20;7.75;;;;;;;9.02;52.86;99407.73;1775618;79;21663;-76
2021/03/17 09:54:27;;;;;;;14.03;8.43;;;;;;;9.02;52.97;99404.55;1780213;79;21481;-77
2021/03/17 09:57:05;;;;;;;17.30;8.50;;;;;;;9.00;52.94;99405.25;1775467;78;21128;-77
2021/03/17 09:59:40;;;;;;;12.43;7.37;;;;;;;9.00;52.93;99402.58;1786754;78;21109;-76
2021/03/17 10:02:22;;;;;;;16.70;9.08;;;;;;;9.03;53.07;99404.88;1773764;79;21599;-76
2021/03/17 10:04:57;;;;;;;16.00;9.68;;;;;;;9.05;53.00;99400.20;1771340;79;21164;-76
2021/03/17 10:07:28;;;;;;;22.50;12.15;;;;;;;9.06;52.94;99401.87;1772324;79;21140;-78
2021/03/17 10:09:57;;;;;;;23.18;15.32;;;;;;;9.08;52.95;99403.88;1737170;79;21114;-74
2021/03/17 10:12:28;;;;;;;12.60;8.08;;;;;;;9.11;53.07;99407.52;1773988;79;21699;-73
2021/03/17 10:15:09;;;;;;;14.10;8.08;;;;;;;9.13;52.97;99404.69;1798581;78;21112;-75
2021/03/17 10:17:36;;;;;;;10.72;6.42;;;;;;;9.14;52.94;99406.34;1757329;79;21142;-76
2021/03/17 10:20:13;;;;;;;9.23;6.75;;;;;;;9.13;52.99;99402.02;1779166;78;21104;-73
2021/03/17 10:22:59;;;;;;;12.15;5.25;;;;;;;9.12;53.01;99407.84;1765946;79;21102;-74
2021/03/17 10:25:28;;;;;;;11.18;5.60;;;;;;;9.13;53.12;99410.03;1745389;80;21113;-74
2021/03/17 10:28:05;;;;;;;7.10;5.20;;;;;;;9.17;53.21;99407.82;1761758;79;21140;-74
2021/03/17 10:30:42;;;;;;;10.15;5.42;;;;;;;9.18;53.25;99406.84;1797923;78;21141;-74
2021/03/17 10:33:14;;;;;;;10.10;5.67;;;;;;;9.21;53.15;99407.80;1799965;78;21588;-74
2021/03/17 10:35:45;;;;;;;7.42;5.08;;;;;;;9.21;53.16;99407.80;1774909;79;21124;-75
2021/03/17 10:38:13;;;;;;;9.18;5.78;;;;;;;9.23;53.09;99409.81;1774148;79;21186;-75
2021/03/17 10:40:41;;;;;;;11.00;5.55;;;;;;;9.22;53.03;99406.31;1776475;79;21679;-76
2021/03/17 10:43:13;;;;;;;5.85;4.70;;;;;;;9.24;53.13;99414.14;1776995;79;21150;-74
2021/03/17 10:45:53;;;;;;;7.65;5.35;;;;;;;9.25;53.09;99415.80;1776021;79;21141;-78
2021/03/17 10:48:46;;;;;;;9.23;5.65;;;;;;;9.26;53.11;99414.78;1792213;78;21093;-75
2021/03/17 10:51:14;;;;;;;8.98;5.40;;;;;;;9.27;53.09;99420.48;1774628;78;21097;-75
2021/03/17 10:53:43;;;;;;;9.35;5.50;;;;;;;9.28;53.08;99416.80;1799322;78;21121;-76
2021/03/17 10:56:15;;;;;;;4.87;4.20;;;;;;;9.29;53.02;99419.28;1798224;78;21170;-76
2021/03/17 10:58:42;;;;;;;6.70;4.92;;;;;;;9.30;52.93;99416.11;1738020;78;21144;-75
2021/03/17 11:01:22;;;;;;;6.87;4.85;;;;;;;9.32;53.02;99415.44;1795958;78;21936;-76
2021/03/17 11:04:07;;;;;;;7.83;5.47;;;;;;;9.35;53.01;99415.06;1781051;79;21141;-74
2021/03/17 11:06:37;;;;;;;9.35;5.72;;;;;;;9.36;53.03;99410.91;1779802;79;21130;-74
2021/03/17 11:09:11;;;;;;;7.50;4.50;;;;;;;9.34;52.99;99412.08;1773467;79;21184;-74
2021/03/17 11:11:51;;;;;;;6.40;4.47;;;;;;;9.34;53.04;99407.56;1769752;79;21130;-76
2021/03/17 11:14:35;;;;;;;7.67;4.45;;;;;;;9.37;52.98;99409.06;1768494;79;21113;-76
2021/03/17 11:17:08;;;;;;;6.47;4.80;;;;;;;9.34;53.01;99414.24;1763916;79;21123;-76
2021/03/17 11:19:46;;;;;;;6.72;5.03;;;;;;;9.33;53.04;99406.41;1783002;78;21126;-75
2021/03/17 11:22:32;;;;;;;9.95;5.00;;;;;;;9.36;53.14;99410.08;1828605;77;21739;-77
2021/03/17 11:25:07;;;;;;;12.28;7.25;;;;;;;9.41;53.22;99410.38;1821984;77;21112;-77
2021/03/17 11:27:35;;;;;;;8.45;4.97;;;;;;;9.46;53.20;99409.84;1832248;77;21175;-75
2021/03/17 11:30:03;;;;;;;13.95;6.15;;;;;;;9.47;52.90;99413.67;1825970;77;21666;-75
2021/03/17 11:32:30;;;;;;;8.43;6.17;;;;;;;9.46;52.88;99409.84;1822153;77;21632;-77
2021/03/17 11:34:57;;;;;;;11.97;7.25;;;;;;;9.45;52.86;99405.01;1823682;77;21606;-77
2021/03/17 11:37:25;;;;;;;7.05;4.40;;;;;;;9.45;52.99;99409.50;1824701;77;21114;-78
2021/03/17 11:39:54;;;;;;;9.05;5.20;;;;;;;9.45;52.93;99410.36;1827211;77;21137;-77
2021/03/17 11:42:21;;;;;;;9.30;6.00;;;;;;;9.49;52.96;99409.47;1799889;77;21611;-77
2021/03/17 11:44:49;;;;;;;8.10;5.10;;;;;;;9.53;52.99;99410.78;1822659;77;21159;-78
2021/03/17 11:47:16;;;;;;;11.28;7.28;;;;;;;9.54;53.02;99406.63;1804380;77;21114;-78
2021/03/17 11:49:43;;;;;;;8.88;5.37;;;;;;;9.55;53.06;99409.61;1825324;77;21117;-76
2021/03/17 11:52:13;;;;;;;8.68;4.58;;;;;;;9.56;53.02;99409.94;1762822;79;21161;-78
2021/03/17 11:54:44;;;;;;;7.22;5.62;;;;;;;9.56;53.02;99412.61;1781483;78;21150;-76
2021/03/17 11:57:15;;;;;;;;;;;;;;;9.57;53.00;99408.92;1763068;80;21122;-76
2021/03/17 11:59:48;;;;;;;7.70;5.08;;;;;;;9.58;52.90;99417.77;1765573;79;20319;-80
2021/03/17 12:02:16;;;;;;;;;;;;;;;9.56;52.97;99415.28;1776134;79;21452;-77